Time;durP1;ratioP1;P1;durP2;ratioP2;P2;SDS_P1;SDS_P2;PMS_P1;PMS_P2;Temp;Humidity;BMP_temperature;BMP_pressure;BME280_temperature;BME280_humidity;BME280_pressure;Samples;Min_cycle;Max_cycle;Signal;HPM_P1;HPM_P2
2022/03/20 00:02:19;;;;;;;8.23;3.85;;;;;;;6.16;56.31;103247.31;4988895;28;20041;-71
2022/03/20 00:04:44;;;;;;;8.98;4.28;;;;;;;6.14;56.45;103249.09;4988807;28;20026;-70
2022/03/20 00:07:11;;;;;;;7.28;4.18;;;;;;;6.12;56.37;103240.41;4988329;28;20029;-70
2022/03/20 00:09:38;;;;;;;9.10;4.47;;;;;;;6.07;56.65;103237.03;4990231;28;20399;-70
2022/03/20 00:12:04;;;;;;;10.10;4.38;;;;;;;6.05;56.51;103232.72;4989183;28;20030;-70
2022/03/20 00:14:29;;;;;;;10.15;4.50;;;;;;;6.03;56.68;103224.03;4989529;28;20046;-70
2022/03/20 00:16:55;;;;;;;8.80;4.55;;;;;;;6.01;56.68;103220.59;4988036;28;20030;-71
2022/03/20 00:19:20;;;;;;;10.07;4.97;;;;;;;5.98;56.71;103222.34;4987027;28;20030;-70
2022/03/20 00:21:46;;;;;;;11.27;5.10;;;;;;;5.96;57.13;103218.88;4988166;28;20041;-70
2022/03/20 00:24:11;;;;;;;10.07;4.90;;;;;;;5.93;57.00;103210.25;4989463;28;20101;-70
2022/03/20 00:26:39;;;;;;;9.50;4.90;;;;;;;5.91;57.60;103212.03;4987754;28;20049;-70
2022/03/20 00:29:06;;;;;;;10.60;5.20;;;;;;;5.86;57.59;103212.06;4985399;28;20025;-70
2022/03/20 00:31:33;;;;;;;10.82;5.47;;;;;;;5.86;57.25;103205.97;4988332;28;20394;-70
2022/03/20 00:33:59;;;;;;;10.23;5.57;;;;;;;5.82;58.18;103202.56;4978106;28;20034;-70
2022/03/20 00:36:24;;;;;;;19.48;10.20;;;;;;;5.80;58.00;103191.28;4970019;28;20046;-70
2022/03/20 00:38:50;;;;;;;17.65;12.60;;;;;;;5.79;57.68;103186.06;4988592;28;20391;-70
2022/03/20 00:41:15;;;;;;;12.70;8.27;;;;;;;5.75;58.10;103184.41;4989028;28;20045;-70
2022/03/20 00:43:41;;;;;;;20.52;12.18;;;;;;;5.70;58.45;103174.03;4989956;28;20030;-70
2022/03/20 00:46:09;;;;;;;32.88;21.55;;;;;;;5.66;58.53;103173.22;4978592;28;20030;-70
2022/03/20 00:48:34;;;;;;;20.55;14.70;;;;;;;5.65;58.23;103166.28;4973208;28;20482;-71
2022/03/20 00:51:03;;;;;;;12.02;8.52;;;;;;;5.61;59.17;103164.59;4989715;28;20033;-71
2022/03/20 00:53:29;;;;;;;15.48;10.95;;;;;;;5.59;58.71;103157.66;4990124;28;20030;-70
2022/03/20 00:55:55;;;;;;;15.77;9.38;;;;;;;5.56;59.45;103160.31;4989289;28;20104;-70
2022/03/20 00:58:20;;;;;;;13.63;8.63;;;;;;;5.53;59.08;103156.00;4989538;28;20034;-70
2022/03/20 01:00:46;;;;;;;14.90;7.00;;;;;;;5.49;59.10;103159.53;4986397;28;20391;-70
2022/03/20 01:03:11;;;;;;;13.90;7.35;;;;;;;5.46;59.29;103150.91;4969860;28;20058;-70
2022/03/20 01:05:36;;;;;;;11.23;6.75;;;;;;;5.43;59.16;103149.22;4970358;28;20050;-71
2022/03/20 01:08:02;;;;;;;13.35;7.40;;;;;;;5.39;59.58;103139.69;4970582;28;20067;-70
2022/03/20 01:10:28;;;;;;;13.65;7.70;;;;;;;5.38;59.78;103143.19;4970426;28;20030;-70
2022/03/20 01:12:54;;;;;;;10.77;7.20;;;;;;;5.34;60.15;103133.69;4973923;28;20038;-71
2022/03/20 01:15:20;;;;;;;12.48;7.68;;;;;;;5.32;59.92;103140.69;4972149;28;20042;-70
2022/03/20 01:17:45;;;;;;;12.63;7.57;;;;;;;5.27;60.17;103137.28;4983232;28;20045;-69
2022/03/20 01:20:11;;;;;;;13.05;7.78;;;;;;;5.24;60.08;103129.50;4992814;28;20033;-69
2022/03/20 01:22:39;;;;;;;17.55;7.72;;;;;;;5.21;60.47;103134.78;4992307;28;20034;-69
2022/03/20 01:25:06;;;;;;;13.35;8.32;;;;;;;5.18;59.95;103127.81;4992617;28;20022;-69
2022/03/20 01:27:32;;;;;;;13.02;7.55;;;;;;;5.16;60.61;103126.97;4992709;28;20034;-69
2022/03/20 01:29:58;;;;;;;13.18;8.00;;;;;;;5.11;60.58;103114.88;4992066;28;20037;-69
2022/03/20 01:32:26;;;;;;;13.70;8.82;;;;;;;5.08;60.74;103109.72;4992750;28;20121;-70
2022/03/20 01:34:52;;;;;;;16.90;8.70;;;;;;;5.06;60.62;103112.34;4988014;28;20022;-70
2022/03/20 01:37:17;;;;;;;15.43;8.80;;;;;;;5.03;60.47;103097.59;4991702;28;20042;-71
2022/03/20 01:39:43;;;;;;;13.50;9.10;;;;;;;5.02;60.52;103097.63;4992670;28;20027;-70
2022/03/20 01:42:08;;;;;;;14.48;10.02;;;;;;;4.99;60.58;103095.94;4992449;28;20049;-70
2022/03/20 01:44:35;;;;;;;16.48;9.93;;;;;;;4.95;60.52;103086.44;4992222;28;20018;-70
2022/03/20 01:47:02;;;;;;;14.90;9.95;;;;;;;4.94;60.79;103086.44;4977955;28;20093;-70
2022/03/20 01:49:27;;;;;;;14.75;10.35;;;;;;;4.91;61.03;103083.91;4974016;28;20025;-70
2022/03/20 01:54:51;;;;;;;19.95;11.98;;;;;;;4.88;60.84;103076.13;5001841;28;20070;-70
2022/03/20 01:57:21;;;;;;;16.17;11.75;;;;;;;4.84;60.73;103072.69;4992891;28;20027;-70
2022/03/20 01:59:51;;;;;;;17.85;12.52;;;;;;;4.82;60.69;103066.63;4991970;28;20047;-70
2022/03/20 02:02:18;;;;;;;24.85;13.65;;;;;;;4.79;60.89;103069.25;4993021;28;20530;-70
2022/03/20 02:04:43;;;;;;;19.65;13.32;;;;;;;4.78;60.34;103070.16;4991060;28;20387;-71
2022/03/20 02:07:09;;;;;;;18.48;13.13;;;;;;;4.73;60.63;103059.78;4992111;28;20022;-70
2022/03/20 02:09:36;;;;;;;21.77;14.32;;;;;;;4.71;60.37;103064.16;4988142;28;20080;-70
2022/03/20 02:12:02;;;;;;;22.83;15.90;;;;;;;4.70;60.30;103054.59;4973182;28;20023;-70
2022/03/20 02:14:27;;;;;;;23.63;15.23;;;;;;;4.70;60.97;103045.94;4977922;28;20467;-71
2022/03/20 02:16:55;;;;;;;24.20;15.15;;;;;;;4.66;60.91;103045.09;4991391;28;20037;-71
2022/03/20 02:19:20;;;;;;;24.77;16.10;;;;;;;4.64;60.77;103038.19;4990999;28;20145;-70
2022/03/20 02:21:47;;;;;;;20.27;15.65;;;;;;;4.61;60.67;103043.44;4989887;28;20124;-70
2022/03/20 02:24:32;;;;;;;23.90;16.88;;;;;;;4.62;60.11;103042.56;4990441;28;20085;-70
2022/03/20 02:27:15;;;;;;;22.95;16.95;;;;;;;4.59;60.22;103042.63;4983833;28;20534;-70
2022/03/20 02:29:42;;;;;;;23.20;16.45;;;;;;;4.53;60.41;103032.28;4972078;28;20023;-70
2022/03/20 02:32:10;;;;;;;22.20;16.77;;;;;;;4.52;60.84;103026.19;4972289;28;20486;-70
2022/03/20 02:34:36;;;;;;;25.23;17.27;;;;;;;4.49;60.70;103022.78;4971843;28;20035;-70
2022/03/20 02:37:02;;;;;;;24.38;17.77;;;;;;;4.47;61.19;103027.16;4976063;28;20042;-70
2022/03/20 02:39:29;;;;;;;26.83;17.80;;;;;;;4.45;61.01;103013.28;4991435;28;20422;-70
2022/03/20 02:41:55;;;;;;;26.42;18.30;;;;;;;4.42;60.66;103014.19;4991257;28;20439;-70
2022/03/20 02:44:21;;;;;;;26.90;18.35;;;;;;;4.41;60.64;103022.88;4991524;28;20049;-70
2022/03/20 02:46:46;;;;;;;25.65;18.90;;;;;;;4.38;60.78;103012.47;4986826;28;20037;-70
2022/03/20 02:49:13;;;;;;;28.95;19.50;;;;;;;4.36;60.84;103009.03;4973075;28;20097;-71
2022/03/20 02:51:39;;;;;;;28.17;19.45;;;;;;;4.33;60.37;103007.31;4972012;28;20035;-70
2022/03/20 02:54:04;;;;;;;28.45;19.95;;;;;;;4.34;60.49;103006.44;4988008;28;20899;-70
2022/03/20 02:56:32;;;;;;;28.35;20.20;;;;;;;4.30;60.61;103002.16;4992182;28;20044;-69
2022/03/20 02:58:57;;;;;;;29.27;19.50;;;;;;;4.29;60.61;103008.25;4991615;28;20108;-70
2022/03/20 03:01:23;;;;;;;31.23;20.33;;;;;;;4.27;60.64;103004.81;4991278;28;20034;-70
2022/03/20 03:03:48;;;;;;;29.70;20.88;;;;;;;4.25;60.46;103001.34;4999910;28;20034;-69
2022/03/20 03:06:14;;;;;;;27.33;20.65;;;;;;;4.24;60.91;103001.38;4990421;28;20531;-70
2022/03/20 03:11:23;;;;;;;31.55;20.30;;;;;;;4.20;60.26;102991.88;4991694;28;20108;-70
2022/03/20 03:13:48;;;;;;;28.88;20.23;;;;;;;4.18;60.68;102986.69;4990109;28;20466;-70
2022/03/20 03:16:15;;;;;;;29.85;21.42;;;;;;;4.16;60.72;102979.78;4991070;28;20474;-70
2022/03/20 03:18:44;;;;;;;29.23;20.65;;;;;;;4.14;60.46;102979.81;4974696;28;20093;-69
2022/03/20 03:21:11;;;;;;;32.30;21.70;;;;;;;4.11;60.85;102974.63;4986514;28;20040;-69
2022/03/20 03:23:37;;;;;;;31.08;21.95;;;;;;;4.12;60.72;102978.97;4990183;28;20053;-69
2022/03/20 03:26:04;;;;;;;29.63;22.70;;;;;;;4.10;60.45;102978.13;4990854;28;20081;-70
2022/03/20 03:28:34;;;;;;;31.67;21.85;;;;;;;4.08;60.08;102966.84;4990715;28;20037;-70
2022/03/20 03:31:04;;;;;;;33.20;22.65;;;;;;;4.05;60.87;102957.34;4990083;28;20041;-70
2022/03/20 03:33:29;;;;;;;30.27;22.77;;;;;;;4.06;60.34;102958.22;4990838;28;20109;-70
2022/03/20 03:35:56;;;;;;;32.28;23.25;;;;;;;4.06;60.71;102961.66;4989289;28;20110;-70
2022/03/20 03:38:24;;;;;;;32.05;23.63;;;;;;;4.03;60.30;102955.63;4989135;28;20053;-70
2022/03/20 03:40:50;;;;;;;34.05;24.05;;;;;;;4.00;60.87;102953.94;4990127;28;20109;-70
2022/03/20 03:43:20;;;;;;;39.92;23.90;;;;;;;4.00;60.98;102953.03;4989692;28;20026;-70
2022/03/20 03:45:46;;;;;;;34.08;24.17;;;;;;;3.97;60.42;102946.13;4990372;28;20042;-71
2022/03/20 03:48:13;;;;;;;35.55;23.67;;;;;;;3.95;61.37;102932.28;4989565;28;20394;-70
2022/03/20 03:50:42;;;;;;;31.73;23.00;;;;;;;3.94;60.58;102933.16;4990263;28;20104;-70
2022/03/20 03:53:11;;;;;;;33.03;23.23;;;;;;;3.92;61.34;102923.63;4990768;28;20068;-70
2022/03/20 03:55:38;;;;;;;33.00;23.90;;;;;;;3.89;60.91;102928.88;4990578;28;20491;-70
2022/03/20 03:58:04;;;;;;;32.50;23.35;;;;;;;3.87;61.40;102917.63;4989767;28;20043;-70
2022/03/20 04:00:32;;;;;;;33.47;23.08;;;;;;;3.86;61.27;102929.78;4991130;28;20030;-70
2022/03/20 04:02:59;;;;;;;35.60;24.58;;;;;;;3.85;61.06;102928.06;4990808;28;20120;-69
2022/03/20 04:05:25;;;;;;;33.72;24.58;;;;;;;3.82;61.47;102922.91;4990290;28;20041;-70
2022/03/20 04:07:50;;;;;;;32.45;23.17;;;;;;;3.80;61.93;102918.59;4990351;28;20406;-70
2022/03/20 04:10:17;;;;;;;35.67;23.42;;;;;;;3.77;61.36;102914.28;4990493;28;20022;-70
2022/03/20 04:12:43;;;;;;;36.05;24.60;;;;;;;3.74;62.26;102907.38;4973709;28;20034;-70
2022/03/20 04:15:10;;;;;;;34.85;24.92;;;;;;;3.71;61.90;102898.75;4971202;28;20395;-70
2022/03/20 04:17:36;;;;;;;36.08;23.45;;;;;;;3.68;62.00;102893.59;4971415;28;20031;-70
2022/03/20 04:20:02;;;;;;;35.72;24.08;;;;;;;3.63;62.67;102891.03;4974803;28;20045;-70
2022/03/20 04:22:29;;;;;;;33.97;24.63;;;;;;;3.60;62.62;102884.97;4977610;28;20030;-70
2022/03/20 04:24:55;;;;;;;32.20;23.65;;;;;;;3.57;62.49;102891.09;4970701;28;20022;-70
2022/03/20 04:27:21;;;;;;;33.08;23.77;;;;;;;3.55;63.05;102885.03;4969734;28;20023;-71
2022/03/20 04:29:48;;;;;;;34.97;24.25;;;;;;;3.52;62.97;102874.66;4970234;28;20086;-70
2022/03/20 04:32:13;;;;;;;31.75;24.40;;;;;;;3.50;62.25;102868.63;4953146;28;20497;-71
2022/03/20 04:34:40;;;;;;;34.85;25.48;;;;;;;3.47;62.82;102866.06;4985581;28;20026;-70
2022/03/20 04:37:07;;;;;;;36.13;25.65;;;;;;;3.42;62.97;102857.47;4989509;28;20054;-70
2022/03/20 04:39:37;;;;;;;37.00;25.38;;;;;;;3.40;63.42;102861.81;4989189;28;20030;-70
2022/03/20 04:42:04;;;;;;;33.53;24.33;;;;;;;3.37;63.42;102854.06;4989670;28;20022;-70
2022/03/20 04:44:29;;;;;;;35.70;25.67;;;;;;;3.32;62.99;102853.25;4983813;28;20054;-70
2022/03/20 04:46:55;;;;;;;37.95;25.42;;;;;;;3.32;63.19;102864.50;4969321;28;20054;-70
2022/03/20 05:00:18;;;;;;;40.55;27.15;;;;;;;3.16;63.05;102839.53;4989472;28;20099;-70
2022/03/20 05:02:43;;;;;;;36.20;24.35;;;;;;;3.14;63.70;102834.34;4983480;28;20030;-70
2022/03/20 05:05:09;;;;;;;37.00;26.25;;;;;;;3.08;63.22;102829.22;5019082;28;20018;-70
2022/03/20 05:07:34;;;;;;;38.15;25.90;;;;;;;3.09;63.52;102830.94;5007108;28;20022;-70
2022/03/20 05:15:31;;;;;;;36.85;25.50;;;;;;;3.03;63.84;102828.41;4988231;28;20122;-70
2022/03/20 05:17:57;;;;;;;36.65;27.30;;;;;;;3.02;63.79;102818.03;4989883;28;20134;-71
2022/03/20 05:20:23;;;;;;;34.58;24.77;;;;;;;2.99;64.22;102818.94;4989674;28;20026;-69
2022/03/20 05:22:50;;;;;;;36.20;25.60;;;;;;;2.98;63.50;102822.41;4988745;28;20391;-70
2022/03/20 05:25:16;;;;;;;37.45;26.42;;;;;;;2.95;63.90;102822.44;4988983;28;20019;-71
2022/03/20 05:27:41;;;;;;;38.25;26.40;;;;;;;2.92;64.23;102816.41;4989020;28;20031;-70
2022/03/20 05:30:07;;;;;;;39.83;27.27;;;;;;;2.90;64.86;102819.03;4988385;28;20498;-70
2022/03/20 05:32:35;;;;;;;35.33;26.02;;;;;;;2.88;64.28;102814.72;4989187;28;20030;-70
2022/03/20 05:35:04;;;;;;;38.70;26.52;;;;;;;2.85;64.05;102815.63;4984155;28;20070;-70
2022/03/20 05:37:29;;;;;;;38.85;25.67;;;;;;;2.82;64.74;102816.50;4974972;28;20065;-70
2022/03/20 05:39:55;;;;;;;36.28;26.05;;;;;;;2.83;64.27;102814.78;4968438;28;20399;-70
2022/03/20 05:42:20;;;;;;;38.10;25.42;;;;;;;2.80;64.18;102812.19;4981255;28;20026;-70
2022/03/20 05:44:46;;;;;;;36.22;26.75;;;;;;;2.78;64.48;102793.13;4979172;28;20030;-71
2022/03/20 05:47:11;;;;;;;34.47;25.17;;;;;;;2.76;64.22;102784.50;4969530;28;20434;-69
2022/03/20 05:49:38;;;;;;;35.47;26.05;;;;;;;2.75;64.69;102791.44;4968669;28;20218;-69
2022/03/20 05:52:04;;;;;;;34.67;25.20;;;;;;;2.74;64.61;102791.44;4981055;28;20030;-70
2022/03/20 05:54:30;;;;;;;34.72;25.25;;;;;;;2.72;64.14;102788.88;4989121;28;20045;-70
2022/03/20 05:59:39;;;;;;;38.22;25.73;;;;;;;2.69;64.52;102788.03;4992932;28;20465;-69
2022/03/20 06:02:05;;;;;;;37.03;25.92;;;;;;;2.67;64.97;102789.78;4993007;28;20026;-70
2022/03/20 06:04:31;;;;;;;35.40;25.77;;;;;;;2.67;64.61;102790.66;4990875;28;20509;-71
2022/03/20 06:06:58;;;;;;;36.80;25.63;;;;;;;2.66;64.48;102788.06;4987703;28;20034;-70
2022/03/20 06:09:23;;;;;;;35.00;25.73;;;;;;;2.64;63.73;102784.63;4992770;28;20114;-69
2022/03/20 06:11:49;;;;;;;37.00;25.40;;;;;;;2.65;63.60;102786.34;4986994;28;20493;-70
2022/03/20 06:14:15;;;;;;;37.53;25.52;;;;;;;2.64;63.97;102779.44;4982272;28;20041;-70
2022/03/20 06:16:43;;;;;;;36.15;24.95;;;;;;;2.64;63.50;102782.03;4991181;28;20057;-71
2022/03/20 06:19:08;;;;;;;36.88;26.13;;;;;;;2.64;63.55;102782.03;4975260;28;20035;-70
2022/03/20 06:21:34;;;;;;;34.85;24.58;;;;;;;2.65;63.45;102775.97;4990999;28;20029;-70
2022/03/20 06:23:59;;;;;;;36.78;25.00;;;;;;;2.66;63.16;102769.88;4992031;28;20034;-70
2022/03/20 06:26:25;;;;;;;37.58;25.33;;;;;;;2.65;62.69;102775.97;4973892;28;20118;-70
2022/03/20 06:28:51;;;;;;;40.30;25.52;;;;;;;2.67;63.20;102784.59;4990107;28;20102;-70
2022/03/20 06:31:19;;;;;;;35.95;24.33;;;;;;;2.67;62.66;102785.47;4991634;28;20096;-70
2022/03/20 06:33:44;;;;;;;35.55;25.58;;;;;;;2.70;62.43;102788.03;4991129;28;20529;-70
2022/03/20 06:36:10;;;;;;;38.33;24.83;;;;;;;2.70;62.74;102794.97;4991150;28;20054;-70
2022/03/20 06:38:36;;;;;;;35.40;23.90;;;;;;;2.72;62.31;102782.81;4991707;28;20034;-70
2022/03/20 06:41:07;;;;;;;38.20;24.55;;;;;;;2.73;62.31;102774.13;4990624;28;20026;-68
2022/03/20 06:43:35;;;;;;;35.92;24.15;;;;;;;2.76;61.60;102774.09;4991405;28;20034;-68
2022/03/20 06:46:01;;;;;;;33.53;23.52;;;;;;;2.80;62.11;102765.41;4989484;28;20105;-69
2022/03/20 06:48:26;;;;;;;30.45;22.52;;;;;;;2.85;61.98;102757.56;4988780;28;20110;-68
2022/03/20 06:50:52;;;;;;;34.35;23.58;;;;;;;2.88;61.85;102765.34;4996766;28;20030;-68
2022/03/20 06:53:18;;;;;;;34.42;24.58;;;;;;;2.92;61.57;102770.47;4979432;28;20551;-68
2022/03/20 06:55:44;;;;;;;33.58;23.88;;;;;;;2.96;60.98;102756.56;4980091;28;20030;-68
2022/03/20 06:58:10;;;;;;;34.17;23.08;;;;;;;3.00;60.40;102747.84;4983709;28;20037;-69
2022/03/20 07:00:37;;;;;;;34.97;23.15;;;;;;;3.05;61.19;102751.25;4983328;28;20022;-68
2022/03/20 07:03:05;;;;;;;31.20;22.45;;;;;;;3.09;59.94;102747.72;4976020;28;20060;-69
2022/03/20 07:05:31;;;;;;;35.30;24.55;;;;;;;3.15;59.67;102744.19;4983904;28;20026;-69
2022/03/20 07:07:56;;;;;;;32.05;23.30;;;;;;;3.19;59.65;102739.81;4980793;28;20896;-69
2022/03/20 07:10:23;;;;;;;32.88;23.17;;;;;;;3.23;59.90;102739.78;4980336;28;20142;-68
2022/03/20 07:12:50;;;;;;;33.75;23.90;;;;;;;3.28;59.78;102735.38;4985862;28;20023;-69
2022/03/20 07:15:17;;;;;;;33.20;23.00;;;;;;;3.32;59.47;102733.59;4974202;28;20669;-69
2022/03/20 07:17:47;;;;;;;32.22;22.17;;;;;;;3.37;58.90;102729.16;4981967;28;20030;-69
2022/03/20 07:20:13;;;;;;;34.30;23.77;;;;;;;3.40;58.44;102721.31;4975941;28;20037;-68
2022/03/20 07:22:40;;;;;;;35.35;22.67;;;;;;;3.43;59.39;102719.53;4978780;28;20553;-69
2022/03/20 07:30:34;;;;;;;34.03;23.02;;;;;;;3.55;58.54;102700.28;4979233;28;20050;-69
2022/03/20 07:32:59;;;;;;;32.70;22.23;;;;;;;3.59;57.73;102701.94;4976129;28;20031;-69
2022/03/20 07:35:25;;;;;;;32.25;21.65;;;;;;;3.63;57.40;102714.06;4978615;28;20399;-69
2022/03/20 07:37:51;;;;;;;30.92;22.13;;;;;;;3.66;56.66;102701.00;4979537;28;20125;-68
2022/03/20 07:40:17;;;;;;;33.25;21.98;;;;;;;3.71;56.11;102706.97;4979168;28;20149;-68
2022/03/20 07:42:42;;;;;;;29.30;21.40;;;;;;;3.74;55.96;102712.13;4975182;28;20038;-68
2022/03/20 07:45:08;;;;;;;33.10;21.92;;;;;;;3.77;55.70;102711.22;4985564;28;20018;-68
2022/03/20 07:47:33;;;;;;;33.00;21.13;;;;;;;3.82;56.19;102713.75;4978268;28;20062;-68
2022/03/20 07:49:59;;;;;;;30.50;21.23;;;;;;;3.83;55.40;102702.47;4979432;28;20034;-68
2022/03/20 07:52:24;;;;;;;31.50;22.17;;;;;;;3.86;55.55;102710.22;4982472;28;20029;-68
2022/03/20 07:54:50;;;;;;;28.35;20.92;;;;;;;3.90;55.11;102706.69;4974763;28;20034;-68
2022/03/20 07:57:16;;;;;;;32.42;21.67;;;;;;;3.92;54.40;102710.13;4980679;28;20606;-69
2022/03/20 07:59:44;;;;;;;31.73;21.77;;;;;;;3.94;54.55;102719.63;4982687;28;20057;-68
2022/03/20 08:02:10;;;;;;;29.52;20.83;;;;;;;3.97;54.06;102718.72;4981393;28;20030;-68
2022/03/20 08:04:35;;;;;;;34.72;21.25;;;;;;;3.98;54.54;102710.00;4976141;28;20438;-68
2022/03/20 08:07:02;;;;;;;31.00;21.50;;;;;;;4.01;54.85;102694.38;4982579;28;20050;-69
2022/03/20 08:09:30;;;;;;;33.08;21.65;;;;;;;4.03;54.83;102713.41;4988175;28;20031;-68
2022/03/20 08:11:56;;;;;;;32.95;21.08;;;;;;;4.03;55.09;102701.25;4973662;28;20109;-68
2022/03/20 08:14:22;;;;;;;33.95;21.67;;;;;;;4.04;54.00;102694.31;4973612;28;20117;-71
2022/03/20 08:16:48;;;;;;;31.65;21.77;;;;;;;4.07;55.12;102691.66;4972764;28;20545;-71
2022/03/20 08:19:16;;;;;;;31.35;21.92;;;;;;;4.07;53.82;102702.06;4977739;28;20105;-70
2022/03/20 08:21:42;;;;;;;32.50;21.25;;;;;;;4.11;54.02;102715.91;4979232;28;20536;-68
2022/03/20 08:24:08;;;;;;;32.70;21.60;;;;;;;4.10;54.11;102704.63;4987309;28;20034;-68
2022/03/20 08:26:33;;;;;;;30.40;21.58;;;;;;;4.12;54.15;102695.03;4978673;28;20395;-68
2022/03/20 08:29:00;;;;;;;30.40;20.90;;;;;;;4.12;53.62;102697.63;4977422;28;20708;-68
2022/03/20 08:31:29;;;;;;;29.83;20.60;;;;;;;4.14;55.04;102688.03;4968696;28;20490;-69
2022/03/20 08:33:57;;;;;;;31.15;20.95;;;;;;;4.16;54.72;102675.00;4978831;28;20023;-68
2022/03/20 08:36:24;;;;;;;35.72;21.95;;;;;;;4.19;55.13;102677.53;4981085;28;20482;-68
2022/03/20 08:38:49;;;;;;;29.27;20.88;;;;;;;4.21;54.39;102684.44;4976824;28;20062;-68
2022/03/20 08:41:14;;;;;;;32.08;21.15;;;;;;;4.23;54.69;102681.81;4976377;28;20057;-68
2022/03/20 08:43:40;;;;;;;33.38;21.48;;;;;;;4.23;53.86;102674.84;4976555;28;20062;-68
2022/03/20 08:46:05;;;;;;;34.25;21.40;;;;;;;4.25;54.26;102673.06;4977194;28;20046;-69
2022/03/20 08:48:30;;;;;;;31.45;23.48;;;;;;;4.26;55.14;102677.41;4981096;28;20034;-71
2022/03/20 08:50:56;;;;;;;44.75;33.28;;;;;;;4.27;54.16;102671.28;4974806;28;20058;-69
2022/03/20 08:53:22;;;;;;;45.83;35.60;;;;;;;4.29;53.93;102679.09;4971315;28;20101;-71
2022/03/20 08:55:48;;;;;;;36.55;25.92;;;;;;;4.30;53.67;102683.41;4981608;28;20026;-69
2022/03/20 08:58:14;;;;;;;31.08;23.00;;;;;;;4.29;53.88;102685.16;4978781;28;20026;-69
2022/03/20 09:00:40;;;;;;;35.08;24.48;;;;;;;4.32;53.69;102679.88;4978877;28;20556;-70
2022/03/20 09:03:06;;;;;;;36.90;23.90;;;;;;;4.34;53.28;102678.09;4986639;28;20041;-69
2022/03/20 09:05:32;;;;;;;45.85;32.47;;;;;;;4.37;53.85;102680.66;4973107;28;20027;-69
2022/03/20 09:07:57;;;;;;;35.65;25.75;;;;;;;4.39;54.25;102672.81;4985136;28;20085;-69
2022/03/20 09:10:24;;;;;;;33.97;24.30;;;;;;;4.41;53.83;102663.25;4989383;28;20471;-69
2022/03/20 09:12:51;;;;;;;32.28;22.05;;;;;;;4.44;53.90;102668.41;4986967;28;20118;-69
2022/03/20 09:15:17;;;;;;;29.17;21.27;;;;;;;4.47;53.07;102652.69;4984760;28;20035;-69
2022/03/20 09:20:28;;;;;;;29.60;21.00;;;;;;;4.60;53.64;102650.69;4989101;28;20053;-69
2022/03/20 09:22:54;;;;;;;32.42;21.50;;;;;;;4.72;53.67;102642.63;4976103;28;20030;-69
2022/03/20 09:25:19;;;;;;;28.73;21.17;;;;;;;4.86;54.04;102645.81;4985668;28;20116;-69
2022/03/20 09:27:48;;;;;;;35.75;21.92;;;;;;;4.97;53.07;102638.59;4974252;28;20120;-69
2022/03/20 09:30:15;;;;;;;32.75;21.55;;;;;;;5.12;53.46;102631.31;4989520;28;20096;-69
2022/03/20 09:32:41;;;;;;;33.55;22.05;;;;;;;5.25;51.31;102627.56;4975266;28;20034;-69
2022/03/20 09:35:08;;;;;;;36.00;22.38;;;;;;;5.35;52.29;102629.06;4991355;28;20025;-68
2022/03/20 09:37:34;;;;;;;33.95;21.52;;;;;;;5.46;52.82;102631.41;4985684;28;20049;-68
2022/03/20 09:39:59;;;;;;;33.20;22.33;;;;;;;5.52;51.25;102626.03;4981059;28;20034;-68
2022/03/20 09:42:24;;;;;;;35.22;22.80;;;;;;;5.57;50.79;102614.56;4974594;28;20026;-68
2022/03/20 09:44:51;;;;;;;34.97;22.05;;;;;;;5.62;51.35;102594.47;4988087;28;20022;-69
2022/03/20 09:47:17;;;;;;;34.80;22.55;;;;;;;5.70;51.73;102603.84;4989100;28;20034;-68
2022/03/20 09:49:44;;;;;;;32.95;23.10;;;;;;;5.75;50.95;102596.75;4986627;28;20054;-68
2022/03/20 09:52:10;;;;;;;36.25;23.33;;;;;;;5.82;51.24;102607.00;4987140;28;20029;-68
2022/03/20 09:54:35;;;;;;;32.97;22.25;;;;;;;5.90;51.70;102606.81;4983100;28;20416;-69
2022/03/20 09:57:05;;;;;;;34.00;23.08;;;;;;;5.95;50.64;102594.50;4992612;28;20037;-68
2022/03/20 09:59:32;;;;;;;30.85;23.50;;;;;;;6.01;50.63;102603.94;4983747;28;20026;-71
2022/03/20 10:02:03;;;;;;;33.00;22.60;;;;;;;6.08;50.68;102605.50;4992445;28;20026;-70
2022/03/20 10:04:29;;;;;;;32.80;23.00;;;;;;;6.13;50.86;102617.53;4990818;28;20602;-69
2022/03/20 10:06:54;;;;;;;33.08;23.40;;;;;;;6.18;50.75;102607.81;4991510;28;20037;-69
2022/03/20 10:09:23;;;;;;;32.28;22.60;;;;;;;6.20;49.92;102603.38;4992349;28;20828;-69
2022/03/20 10:11:50;;;;;;;32.35;23.00;;;;;;;6.26;50.78;102604.97;4991911;28;20501;-70
2022/03/20 10:14:18;;;;;;;35.30;23.45;;;;;;;6.28;50.09;102609.25;4992139;28;20833;-69
2022/03/20 10:16:48;;;;;;;34.08;23.10;;;;;;;6.32;50.00;102612.66;4991172;28;20037;-70
2022/03/20 10:19:22;;;;;;;34.90;23.83;;;;;;;6.37;50.34;102612.50;4972031;28;20030;-70
2022/03/20 10:22:11;;;;;;;35.25;24.52;;;;;;;6.42;50.09;102605.44;4991156;28;20019;-70
2022/03/20 10:24:39;;;;;;;36.80;23.98;;;;;;;6.44;50.24;102608.84;4991335;28;20388;-70
2022/03/20 10:27:04;;;;;;;36.75;24.50;;;;;;;6.47;49.86;102598.31;4992094;28;20069;-70
2022/03/20 10:29:32;;;;;;;40.00;26.20;;;;;;;6.49;49.16;102601.72;4978337;28;20074;-69
2022/03/20 10:32:01;;;;;;;37.85;26.63;;;;;;;6.52;49.99;102597.25;4970297;28;20077;-70
2022/03/20 10:34:27;;;;;;;39.20;26.65;;;;;;;6.58;50.34;102591.00;4972693;28;20039;-72
2022/03/20 10:36:53;;;;;;;39.40;27.35;;;;;;;6.68;50.16;102597.66;4989432;28;20050;-70
2022/03/20 10:39:20;;;;;;;40.85;27.13;;;;;;;6.77;49.78;102594.75;4990710;28;20058;-70
2022/03/20 10:41:47;;;;;;;40.90;28.08;;;;;;;6.89;51.23;102586.56;4991615;28;20494;-70
2022/03/20 10:44:15;;;;;;;38.72;28.35;;;;;;;6.98;53.31;102595.03;4987234;28;20077;-70
2022/03/20 10:46:43;;;;;;;40.25;29.27;;;;;;;7.04;54.17;102605.31;4979373;28;20086;-70
2022/03/20 10:49:11;;;;;;;39.58;29.08;;;;;;;7.09;54.33;102598.16;4970997;28;20022;-70
2022/03/20 10:51:41;;;;;;;40.08;28.30;;;;;;;7.11;54.23;102593.75;4976654;28;20041;-70
2022/03/20 10:54:15;;;;;;;41.72;28.92;;;;;;;7.13;54.30;102605.00;4970255;28;20130;-70
2022/03/20 10:56:53;;;;;;;38.95;28.88;;;;;;;7.18;54.69;102603.97;4977627;28;20026;-70
2022/03/20 10:59:19;;;;;;;39.40;28.52;;;;;;;7.18;54.65;102603.09;4980650;28;20031;-70
2022/03/20 11:01:45;;;;;;;39.70;29.15;;;;;;;7.19;55.14;102604.81;4979957;28;20054;-70
2022/03/20 11:04:12;;;;;;;40.38;28.85;;;;;;;7.20;55.57;102602.19;4983458;28;20061;-70
2022/03/20 11:06:40;;;;;;;42.60;30.90;;;;;;;7.24;56.21;102605.56;4977158;28;20061;-70
2022/03/20 11:09:06;;;;;;;38.35;29.63;;;;;;;7.25;56.66;102609.88;4979556;28;20142;-70
2022/03/20 11:11:34;;;;;;;41.92;29.65;;;;;;;7.25;57.35;102620.34;4982573;28;20105;-70
2022/03/20 11:13:59;;;;;;;41.80;29.95;;;;;;;7.22;57.29;102620.47;4979493;28;20066;-70
2022/03/20 11:16:26;;;;;;;41.80;29.40;;;;;;;7.15;58.24;102618.91;4972123;28;20023;-70
2022/03/20 11:18:53;;;;;;;41.25;29.27;;;;;;;7.13;58.46;102620.72;4971967;28;20027;-70
2022/03/20 11:21:24;;;;;;;42.47;30.42;;;;;;;7.08;58.45;102622.63;4994343;28;20052;-70
2022/03/20 11:23:51;;;;;;;41.10;30.20;;;;;;;7.04;59.13;102626.25;4993627;28;20109;-70
2022/03/20 11:26:20;;;;;;;41.88;31.08;;;;;;;7.02;59.01;102622.81;4990163;28;20046;-70
2022/03/20 11:28:49;;;;;;;40.97;30.27;;;;;;;6.97;59.65;102622.09;4988804;28;20106;-70
2022/03/20 11:31:15;;;;;;;43.28;30.60;;;;;;;6.94;59.86;102615.19;4991164;28;20029;-70
2022/03/20 11:33:43;;;;;;;40.20;29.83;;;;;;;6.93;59.73;102625.72;4988500;28;21010;-70
2022/03/20 11:36:09;;;;;;;41.50;31.00;;;;;;;6.92;59.54;102622.25;4970596;28;20027;-70
2022/03/20 11:38:37;;;;;;;45.97;31.17;;;;;;;6.90;59.60;102624.06;4984622;28;20160;-70
2022/03/20 11:41:08;;;;;;;48.03;31.10;;;;;;;6.87;60.23;102613.69;4990419;28;20018;-70
2022/03/20 11:43:36;;;;;;;41.05;30.15;;;;;;;6.85;60.12;102616.34;4990017;28;20037;-70
2022/03/20 11:46:33;;;;;;;43.47;30.67;;;;;;;6.86;60.03;102625.91;4983605;28;20141;-70
2022/03/20 11:49:13;;;;;;;48.13;30.60;;;;;;;6.85;60.48;102618.97;4979943;28;20019;-70
2022/03/20 11:51:56;;;;;;;40.97;29.67;;;;;;;6.84;61.49;102630.34;4983551;28;20026;-70